sensor_id;sensor_type;location;lat;lon;timestamp;P1;durP1;ratioP1;P2;durP2;ratioP2
48076;SDS011;33854;57.708;12.008;2022-10-16T00:01:14;25.10;;;8.27;;
48076;SDS011;33854;57.708;12.008;2022-10-16T00:03:42;28.00;;;7.70;;
48076;SDS011;33854;57.708;12.008;2022-10-16T00:06:08;20.90;;;6.78;;
48076;SDS011;33854;57.708;12.008;2022-10-16T00:08:35;18.85;;;5.93;;
48076;SDS011;33854;57.708;12.008;2022-10-16T00:11:02;17.75;;;5.60;;
48076;SDS011;33854;57.708;12.008;2022-10-16T00:13:33;18.08;;;5.43;;
48076;SDS011;33854;57.708;12.008;2022-10-16T00:16:00;15.10;;;4.60;;
48076;SDS011;33854;57.708;12.008;2022-10-16T00:18:26;16.00;;;5.05;;
48076;SDS011;33854;57.708;12.008;2022-10-16T00:20:53;13.90;;;4.00;;
48076;SDS011;33854;57.708;12.008;2022-10-16T00:23:18;14.90;;;4.23;;
48076;SDS011;33854;57.708;12.008;2022-10-16T00:25:44;15.70;;;3.95;;
48076;SDS011;33854;57.708;12.008;2022-10-16T00:28:10;15.03;;;4.60;;
48076;SDS011;33854;57.708;12.008;2022-10-16T00:30:38;13.73;;;3.90;;
48076;SDS011;33854;57.708;12.008;2022-10-16T00:33:04;18.92;;;4.35;;
48076;SDS011;33854;57.708;12.008;2022-10-16T00:35:30;12.87;;;3.50;;
48076;SDS011;33854;57.708;12.008;2022-10-16T00:37:56;17.63;;;3.58;;
48076;SDS011;33854;57.708;12.008;2022-10-16T00:40:21;8.70;;;3.33;;
48076;SDS011;33854;57.708;12.008;2022-10-16T00:42:46;18.10;;;3.27;;
48076;SDS011;33854;57.708;12.008;2022-10-16T00:45:12;12.50;;;2.60;;
48076;SDS011;33854;57.708;12.008;2022-10-16T00:47:42;15.37;;;3.20;;
48076;SDS011;33854;57.708;12.008;2022-10-16T00:50:33;18.88;;;3.65;;
48076;SDS011;33854;57.708;12.008;2022-10-16T00:52:59;12.45;;;2.55;;
48076;SDS011;33854;57.708;12.008;2022-10-16T00:55:27;9.68;;;2.22;;
48076;SDS011;33854;57.708;12.008;2022-10-16T00:57:55;17.05;;;3.25;;
48076;SDS011;33854;57.708;12.008;2022-10-16T01:00:25;12.70;;;2.95;;
48076;SDS011;33854;57.708;12.008;2022-10-16T01:02:55;9.93;;;2.03;;
48076;SDS011;33854;57.708;12.008;2022-10-16T01:05:22;11.45;;;1.80;;
48076;SDS011;33854;57.708;12.008;2022-10-16T01:07:56;13.93;;;2.17;;
48076;SDS011;33854;57.708;12.008;2022-10-16T01:10:41;13.40;;;2.58;;
48076;SDS011;33854;57.708;12.008;2022-10-16T01:18:42;9.25;;;2.47;;
48076;SDS011;33854;57.708;12.008;2022-10-16T01:21:10;9.55;;;2.45;;
48076;SDS011;33854;57.708;12.008;2022-10-16T01:26:41;10.40;;;2.33;;
48076;SDS011;33854;57.708;12.008;2022-10-16T01:29:40;14.27;;;2.40;;
48076;SDS011;33854;57.708;12.008;2022-10-16T01:38:04;11.05;;;2.65;;
48076;SDS011;33854;57.708;12.008;2022-10-16T01:40:36;10.63;;;2.30;;
48076;SDS011;33854;57.708;12.008;2022-10-16T01:43:20;17.02;;;2.90;;
48076;SDS011;33854;57.708;12.008;2022-10-16T01:45:51;14.68;;;2.17;;
48076;SDS011;33854;57.708;12.008;2022-10-16T01:48:18;13.07;;;3.17;;
48076;SDS011;33854;57.708;12.008;2022-10-16T01:50:50;11.82;;;2.15;;
48076;SDS011;33854;57.708;12.008;2022-10-16T01:53:19;11.70;;;2.00;;
48076;SDS011;33854;57.708;12.008;2022-10-16T01:55:46;9.90;;;1.95;;
48076;SDS011;33854;57.708;12.008;2022-10-16T01:58:14;12.00;;;3.10;;
48076;SDS011;33854;57.708;12.008;2022-10-16T02:00:41;11.48;;;2.20;;
48076;SDS011;33854;57.708;12.008;2022-10-16T02:03:08;12.93;;;2.67;;
48076;SDS011;33854;57.708;12.008;2022-10-16T02:05:41;15.52;;;2.67;;
48076;SDS011;33854;57.708;12.008;2022-10-16T02:08:11;12.32;;;2.03;;
48076;SDS011;33854;57.708;12.008;2022-10-16T02:10:37;13.27;;;2.17;;
48076;SDS011;33854;57.708;12.008;2022-10-16T02:13:05;18.05;;;2.63;;
48076;SDS011;33854;57.708;12.008;2022-10-16T02:15:35;14.18;;;2.25;;
48076;SDS011;33854;57.708;12.008;2022-10-16T02:18:01;10.30;;;1.87;;
48076;SDS011;33854;57.708;12.008;2022-10-16T02:20:29;7.63;;;2.50;;
48076;SDS011;33854;57.708;12.008;2022-10-16T02:23:19;8.90;;;2.35;;
48076;SDS011;33854;57.708;12.008;2022-10-16T02:25:53;10.85;;;2.85;;
48076;SDS011;33854;57.708;12.008;2022-10-16T02:28:24;12.52;;;2.30;;
48076;SDS011;33854;57.708;12.008;2022-10-16T02:31:00;10.27;;;2.00;;
48076;SDS011;33854;57.708;12.008;2022-10-16T02:33:29;19.67;;;3.03;;
48076;SDS011;33854;57.708;12.008;2022-10-16T02:35:57;16.45;;;2.28;;
48076;SDS011;33854;57.708;12.008;2022-10-16T02:38:23;17.80;;;2.78;;
48076;SDS011;33854;57.708;12.008;2022-10-16T02:40:50;17.08;;;3.03;;
48076;SDS011;33854;57.708;12.008;2022-10-16T02:43:16;18.03;;;2.93;;
48076;SDS011;33854;57.708;12.008;2022-10-16T02:45:42;10.37;;;2.33;;
48076;SDS011;33854;57.708;12.008;2022-10-16T02:48:08;17.63;;;2.93;;
48076;SDS011;33854;57.708;12.008;2022-10-16T02:50:33;14.40;;;2.23;;
48076;SDS011;33854;57.708;12.008;2022-10-16T02:52:59;13.27;;;2.40;;
48076;SDS011;33854;57.708;12.008;2022-10-16T02:55:24;11.20;;;2.23;;
48076;SDS011;33854;57.708;12.008;2022-10-16T02:57:49;15.60;;;2.57;;
48076;SDS011;33854;57.708;12.008;2022-10-16T03:00:15;15.53;;;3.03;;
48076;SDS011;33854;57.708;12.008;2022-10-16T03:05:07;14.77;;;2.60;;
48076;SDS011;33854;57.708;12.008;2022-10-16T03:07:34;15.15;;;3.47;;
48076;SDS011;33854;57.708;12.008;2022-10-16T03:09:59;14.20;;;2.37;;
48076;SDS011;33854;57.708;12.008;2022-10-16T03:12:25;17.00;;;3.23;;
48076;SDS011;33854;57.708;12.008;2022-10-16T03:17:17;19.00;;;2.37;;
48076;SDS011;33854;57.708;12.008;2022-10-16T03:19:42;16.40;;;3.23;;
48076;SDS011;33854;57.708;12.008;2022-10-16T03:22:08;13.73;;;2.43;;
48076;SDS011;33854;57.708;12.008;2022-10-16T03:24:33;18.17;;;3.23;;
48076;SDS011;33854;57.708;12.008;2022-10-16T03:26:58;12.57;;;2.57;;
48076;SDS011;33854;57.708;12.008;2022-10-16T03:29:24;22.17;;;3.70;;
48076;SDS011;33854;57.708;12.008;2022-10-16T03:31:50;17.77;;;3.03;;
48076;SDS011;33854;57.708;12.008;2022-10-16T03:34:16;15.13;;;3.17;;
48076;SDS011;33854;57.708;12.008;2022-10-16T03:36:41;14.20;;;2.93;;
48076;SDS011;33854;57.708;12.008;2022-10-16T03:39:07;21.60;;;3.97;;
48076;SDS011;33854;57.708;12.008;2022-10-16T03:41:32;19.40;;;3.43;;
48076;SDS011;33854;57.708;12.008;2022-10-16T03:43:57;19.07;;;2.93;;
48076;SDS011;33854;57.708;12.008;2022-10-16T03:46:23;16.97;;;3.23;;
48076;SDS011;33854;57.708;12.008;2022-10-16T03:48:48;13.63;;;3.60;;
48076;SDS011;33854;57.708;12.008;2022-10-16T03:51:13;25.27;;;3.53;;
48076;SDS011;33854;57.708;12.008;2022-10-16T03:53:39;14.70;;;3.20;;
48076;SDS011;33854;57.708;12.008;2022-10-16T03:56:04;16.17;;;3.03;;
48076;SDS011;33854;57.708;12.008;2022-10-16T03:58:30;22.00;;;3.60;;
48076;SDS011;33854;57.708;12.008;2022-10-16T04:00:56;19.73;;;3.73;;
48076;SDS011;33854;57.708;12.008;2022-10-16T04:03:21;14.60;;;3.30;;
48076;SDS011;33854;57.708;12.008;2022-10-16T04:05:47;17.20;;;3.58;;
48076;SDS011;33854;57.708;12.008;2022-10-16T04:08:13;17.90;;;3.47;;
48076;SDS011;33854;57.708;12.008;2022-10-16T04:10:38;24.17;;;3.90;;
48076;SDS011;33854;57.708;12.008;2022-10-16T04:13:04;15.67;;;4.20;;
48076;SDS011;33854;57.708;12.008;2022-10-16T04:15:29;11.93;;;3.60;;
48076;SDS011;33854;57.708;12.008;2022-10-16T04:17:55;16.03;;;3.87;;
48076;SDS011;33854;57.708;12.008;2022-10-16T04:20:20;14.00;;;3.57;;
48076;SDS011;33854;57.708;12.008;2022-10-16T04:22:46;20.37;;;3.93;;
48076;SDS011;33854;57.708;12.008;2022-10-16T04:25:11;17.80;;;3.60;;
48076;SDS011;33854;57.708;12.008;2022-10-16T04:27:37;16.27;;;4.07;;
48076;SDS011;33854;57.708;12.008;2022-10-16T04:30:04;19.63;;;3.75;;
48076;SDS011;33854;57.708;12.008;2022-10-16T04:32:29;22.63;;;3.63;;
48076;SDS011;33854;57.708;12.008;2022-10-16T04:34:55;20.43;;;4.30;;
48076;SDS011;33854;57.708;12.008;2022-10-16T04:37:24;16.07;;;3.70;;
48076;SDS011;33854;57.708;12.008;2022-10-16T04:39:50;20.55;;;4.07;;
48076;SDS011;33854;57.708;12.008;2022-10-16T04:42:16;15.30;;;3.97;;
48076;SDS011;33854;57.708;12.008;2022-10-16T04:44:41;19.73;;;4.33;;
48076;SDS011;33854;57.708;12.008;2022-10-16T04:47:06;17.17;;;4.60;;
48076;SDS011;33854;57.708;12.008;2022-10-16T04:49:32;14.53;;;4.73;;
48076;SDS011;33854;57.708;12.008;2022-10-16T04:51:57;18.97;;;4.60;;
48076;SDS011;33854;57.708;12.008;2022-10-16T04:54:23;19.27;;;4.23;;
48076;SDS011;33854;57.708;12.008;2022-10-16T04:56:48;16.20;;;4.27;;
48076;SDS011;33854;57.708;12.008;2022-10-16T04:59:16;27.75;;;5.22;;
48076;SDS011;33854;57.708;12.008;2022-10-16T05:01:42;17.83;;;4.28;;
48076;SDS011;33854;57.708;12.008;2022-10-16T05:04:08;20.43;;;4.10;;
48076;SDS011;33854;57.708;12.008;2022-10-16T05:06:34;13.68;;;3.67;;
48076;SDS011;33854;57.708;12.008;2022-10-16T05:09:00;19.93;;;4.33;;
48076;SDS011;33854;57.708;12.008;2022-10-16T05:11:25;22.10;;;3.93;;
48076;SDS011;33854;57.708;12.008;2022-10-16T05:13:50;24.60;;;4.10;;
48076;SDS011;33854;57.708;12.008;2022-10-16T05:16:16;19.10;;;3.57;;
48076;SDS011;33854;57.708;12.008;2022-10-16T05:18:41;19.57;;;3.93;;
48076;SDS011;33854;57.708;12.008;2022-10-16T05:21:06;18.40;;;3.70;;
48076;SDS011;33854;57.708;12.008;2022-10-16T05:23:32;16.07;;;3.40;;
48076;SDS011;33854;57.708;12.008;2022-10-16T05:25:58;19.07;;;4.60;;
48076;SDS011;33854;57.708;12.008;2022-10-16T05:28:27;15.38;;;4.75;;
48076;SDS011;33854;57.708;12.008;2022-10-16T05:30:54;12.65;;;3.67;;
48076;SDS011;33854;57.708;12.008;2022-10-16T05:33:20;13.30;;;3.50;;
48076;SDS011;33854;57.708;12.008;2022-10-16T05:35:46;12.07;;;4.43;;
48076;SDS011;33854;57.708;12.008;2022-10-16T05:38:11;23.73;;;4.90;;
48076;SDS011;33854;57.708;12.008;2022-10-16T05:40:37;9.27;;;3.17;;
48076;SDS011;33854;57.708;12.008;2022-10-16T05:43:02;13.23;;;3.80;;
48076;SDS011;33854;57.708;12.008;2022-10-16T05:45:28;16.07;;;4.60;;
48076;SDS011;33854;57.708;12.008;2022-10-16T05:47:53;19.83;;;5.57;;
48076;SDS011;33854;57.708;12.008;2022-10-16T05:50:18;26.73;;;10.60;;
48076;SDS011;33854;57.708;12.008;2022-10-16T05:52:44;18.23;;;5.63;;
48076;SDS011;33854;57.708;12.008;2022-10-16T05:55:09;29.63;;;5.60;;
48076;SDS011;33854;57.708;12.008;2022-10-16T05:57:34;21.33;;;5.27;;
48076;SDS011;33854;57.708;12.008;2022-10-16T06:00:00;19.00;;;5.90;;
48076;SDS011;33854;57.708;12.008;2022-10-16T06:02:25;24.97;;;6.40;;
48076;SDS011;33854;57.708;12.008;2022-10-16T06:04:51;16.07;;;5.33;;
48076;SDS011;33854;57.708;12.008;2022-10-16T06:07:18;31.60;;;6.07;;
48076;SDS011;33854;57.708;12.008;2022-10-16T06:09:44;22.50;;;6.10;;
48076;SDS011;33854;57.708;12.008;2022-10-16T06:12:12;21.65;;;7.07;;
48076;SDS011;33854;57.708;12.008;2022-10-16T06:14:38;19.97;;;6.67;;
48076;SDS011;33854;57.708;12.008;2022-10-16T06:17:03;17.67;;;6.50;;
48076;SDS011;33854;57.708;12.008;2022-10-16T06:19:28;20.13;;;6.60;;
48076;SDS011;33854;57.708;12.008;2022-10-16T06:21:54;23.07;;;7.23;;
48076;SDS011;33854;57.708;12.008;2022-10-16T06:24:19;20.03;;;6.93;;
48076;SDS011;33854;57.708;12.008;2022-10-16T06:26:44;24.50;;;6.27;;
48076;SDS011;33854;57.708;12.008;2022-10-16T06:29:10;21.77;;;7.43;;
48076;SDS011;33854;57.708;12.008;2022-10-16T06:31:35;23.97;;;6.93;;
48076;SDS011;33854;57.708;12.008;2022-10-16T06:34:01;19.53;;;7.60;;
48076;SDS011;33854;57.708;12.008;2022-10-16T06:36:27;22.53;;;6.43;;
48076;SDS011;33854;57.708;12.008;2022-10-16T06:38:52;20.53;;;7.10;;
48076;SDS011;33854;57.708;12.008;2022-10-16T06:41:19;24.70;;;6.73;;
48076;SDS011;33854;57.708;12.008;2022-10-16T06:43:46;18.85;;;6.60;;
48076;SDS011;33854;57.708;12.008;2022-10-16T06:46:13;17.33;;;6.57;;
48076;SDS011;33854;57.708;12.008;2022-10-16T06:48:40;12.57;;;6.07;;
48076;SDS011;33854;57.708;12.008;2022-10-16T06:51:07;22.53;;;6.40;;
48076;SDS011;33854;57.708;12.008;2022-10-16T06:53:39;18.83;;;6.63;;
48076;SDS011;33854;57.708;12.008;2022-10-16T06:56:10;18.33;;;5.28;;
48076;SDS011;33854;57.708;12.008;2022-10-16T06:58:37;16.50;;;5.75;;
48076;SDS011;33854;57.708;12.008;2022-10-16T07:01:03;14.27;;;4.90;;
48076;SDS011;33854;57.708;12.008;2022-10-16T07:03:29;15.27;;;4.75;;
48076;SDS011;33854;57.708;12.008;2022-10-16T07:05:55;14.23;;;3.87;;
48076;SDS011;33854;57.708;12.008;2022-10-16T07:08:21;15.07;;;5.17;;
48076;SDS011;33854;57.708;12.008;2022-10-16T07:10:46;14.13;;;3.77;;
48076;SDS011;33854;57.708;12.008;2022-10-16T07:13:12;10.67;;;3.57;;
48076;SDS011;33854;57.708;12.008;2022-10-16T07:15:40;9.02;;;2.90;;
48076;SDS011;33854;57.708;12.008;2022-10-16T07:18:06;7.38;;;2.90;;
48076;SDS011;33854;57.708;12.008;2022-10-16T07:20:32;9.43;;;2.67;;
48076;SDS011;33854;57.708;12.008;2022-10-16T07:22:57;9.47;;;2.50;;
48076;SDS011;33854;57.708;12.008;2022-10-16T07:25:23;9.93;;;2.60;;
48076;SDS011;33854;57.708;12.008;2022-10-16T07:27:48;13.83;;;3.37;;
48076;SDS011;33854;57.708;12.008;2022-10-16T07:30:14;10.07;;;2.20;;
48076;SDS011;33854;57.708;12.008;2022-10-16T07:32:39;7.63;;;1.40;;
48076;SDS011;33854;57.708;12.008;2022-10-16T07:35:05;5.87;;;1.20;;
48076;SDS011;33854;57.708;12.008;2022-10-16T07:37:31;14.57;;;1.95;;
48076;SDS011;33854;57.708;12.008;2022-10-16T07:39:56;6.37;;;0.77;;
48076;SDS011;33854;57.708;12.008;2022-10-16T07:42:21;7.77;;;1.20;;
48076;SDS011;33854;57.708;12.008;2022-10-16T07:44:47;11.40;;;2.07;;
48076;SDS011;33854;57.708;12.008;2022-10-16T07:47:12;7.43;;;1.20;;
48076;SDS011;33854;57.708;12.008;2022-10-16T07:49:37;9.27;;;1.03;;
48076;SDS011;33854;57.708;12.008;2022-10-16T07:52:03;7.20;;;1.13;;
48076;SDS011;33854;57.708;12.008;2022-10-16T07:54:28;13.43;;;2.63;;
48076;SDS011;33854;57.708;12.008;2022-10-16T07:56:53;14.97;;;2.07;;
48076;SDS011;33854;57.708;12.008;2022-10-16T07:59:19;13.53;;;2.00;;
48076;SDS011;33854;57.708;12.008;2022-10-16T08:01:44;11.13;;;1.80;;
48076;SDS011;33854;57.708;12.008;2022-10-16T08:04:10;17.43;;;3.03;;
48076;SDS011;33854;57.708;12.008;2022-10-16T08:06:36;8.93;;;1.37;;
48076;SDS011;33854;57.708;12.008;2022-10-16T08:09:02;7.70;;;1.83;;
48076;SDS011;33854;57.708;12.008;2022-10-16T08:11:28;11.82;;;1.63;;
48076;SDS011;33854;57.708;12.008;2022-10-16T08:13:54;6.03;;;1.13;;
48076;SDS011;33854;57.708;12.008;2022-10-16T08:16:19;13.03;;;1.93;;
48076;SDS011;33854;57.708;12.008;2022-10-16T08:18:45;2.72;;;0.93;;
48076;SDS011;33854;57.708;12.008;2022-10-16T08:21:15;5.83;;;1.43;;
48076;SDS011;33854;57.708;12.008;2022-10-16T08:23:42;8.50;;;1.83;;
48076;SDS011;33854;57.708;12.008;2022-10-16T08:26:09;9.95;;;2.15;;
48076;SDS011;33854;57.708;12.008;2022-10-16T08:28:34;11.43;;;1.40;;
48076;SDS011;33854;57.708;12.008;2022-10-16T08:31:04;10.00;;;1.58;;
48076;SDS011;33854;57.708;12.008;2022-10-16T08:33:38;6.50;;;1.20;;
48076;SDS011;33854;57.708;12.008;2022-10-16T08:36:05;14.27;;;2.00;;
48076;SDS011;33854;57.708;12.008;2022-10-16T08:38:31;16.02;;;2.20;;
48076;SDS011;33854;57.708;12.008;2022-10-16T08:41:08;9.52;;;1.52;;
48076;SDS011;33854;57.708;12.008;2022-10-16T08:43:43;14.00;;;2.10;;
48076;SDS011;33854;57.708;12.008;2022-10-16T08:49:21;8.40;;;1.83;;
48076;SDS011;33854;57.708;12.008;2022-10-16T08:51:49;10.30;;;2.15;;
48076;SDS011;33854;57.708;12.008;2022-10-16T08:56:44;10.40;;;1.42;;
48076;SDS011;33854;57.708;12.008;2022-10-16T08:59:10;9.80;;;1.67;;
48076;SDS011;33854;57.708;12.008;2022-10-16T09:01:54;12.85;;;2.60;;
48076;SDS011;33854;57.708;12.008;2022-10-16T09:06:55;10.05;;;1.58;;
48076;SDS011;33854;57.708;12.008;2022-10-16T09:09:44;14.68;;;2.63;;
48076;SDS011;33854;57.708;12.008;2022-10-16T09:12:17;21.08;;;3.90;;
48076;SDS011;33854;57.708;12.008;2022-10-16T09:20:29;18.58;;;2.65;;
48076;SDS011;33854;57.708;12.008;2022-10-16T09:23:15;10.85;;;2.30;;
48076;SDS011;33854;57.708;12.008;2022-10-16T09:25:54;15.38;;;2.78;;
48076;SDS011;33854;57.708;12.008;2022-10-16T09:28:21;16.73;;;2.38;;
48076;SDS011;33854;57.708;12.008;2022-10-16T09:30:47;16.70;;;3.33;;
48076;SDS011;33854;57.708;12.008;2022-10-16T09:33:16;14.43;;;2.45;;
48076;SDS011;33854;57.708;12.008;2022-10-16T09:35:45;19.52;;;2.33;;
48076;SDS011;33854;57.708;12.008;2022-10-16T09:38:31;8.32;;;1.30;;
48076;SDS011;33854;57.708;12.008;2022-10-16T09:40:58;18.75;;;2.30;;
48076;SDS011;33854;57.708;12.008;2022-10-16T09:44:14;11.23;;;2.42;;
48076;SDS011;33854;57.708;12.008;2022-10-16T09:48:50;10.45;;;2.08;;
48076;SDS011;33854;57.708;12.008;2022-10-16T09:51:22;12.02;;;1.88;;
48076;SDS011;33854;57.708;12.008;2022-10-16T09:53:57;15.07;;;1.90;;
48076;SDS011;33854;57.708;12.008;2022-10-16T09:58:58;14.60;;;2.95;;
48076;SDS011;33854;57.708;12.008;2022-10-16T10:01:30;13.27;;;2.00;;
48076;SDS011;33854;57.708;12.008;2022-10-16T10:04:01;15.68;;;2.25;;
48076;SDS011;33854;57.708;12.008;2022-10-16T10:09:17;11.25;;;1.80;;
48076;SDS011;33854;57.708;12.008;2022-10-16T10:11:57;12.32;;;2.60;;
48076;SDS011;33854;57.708;12.008;2022-10-16T10:17:28;14.80;;;3.38;;
48076;SDS011;33854;57.708;12.008;2022-10-16T10:31:09;11.15;;;1.60;;
48076;SDS011;33854;57.708;12.008;2022-10-16T10:39:27;16.10;;;3.03;;
48076;SDS011;33854;57.708;12.008;2022-10-16T10:42:13;17.98;;;1.98;;
48076;SDS011;33854;57.708;12.008;2022-10-16T10:45:07;7.47;;;1.70;;
48076;SDS011;33854;57.708;12.008;2022-10-16T10:50:25;11.57;;;2.03;;
48076;SDS011;33854;57.708;12.008;2022-10-16T10:53:08;10.80;;;2.67;;
48076;SDS011;33854;57.708;12.008;2022-10-16T10:56:39;16.08;;;2.42;;
48076;SDS011;33854;57.708;12.008;2022-10-16T10:59:07;9.93;;;1.90;;
48076;SDS011;33854;57.708;12.008;2022-10-16T11:06:57;15.30;;;2.93;;
48076;SDS011;33854;57.708;12.008;2022-10-16T11:09:28;27.00;;;4.03;;
48076;SDS011;33854;57.708;12.008;2022-10-16T11:17:28;19.65;;;3.38;;
48076;SDS011;33854;57.708;12.008;2022-10-16T11:22:58;14.75;;;2.70;;
48076;SDS011;33854;57.708;12.008;2022-10-16T11:25:28;10.43;;;2.45;;
48076;SDS011;33854;57.708;12.008;2022-10-16T11:30:49;13.27;;;2.20;;
48076;SDS011;33854;57.708;12.008;2022-10-16T11:40:54;12.77;;;3.00;;
48076;SDS011;33854;57.708;12.008;2022-10-16T11:43:43;16.40;;;2.17;;
48076;SDS011;33854;57.708;12.008;2022-10-16T11:46:30;17.30;;;2.60;;
48076;SDS011;33854;57.708;12.008;2022-10-16T11:49:03;15.82;;;2.83;;
48076;SDS011;33854;57.708;12.008;2022-10-16T11:51:42;12.75;;;2.40;;
48076;SDS011;33854;57.708;12.008;2022-10-16T11:56:39;16.53;;;1.63;;
48076;SDS011;33854;57.708;12.008;2022-10-16T12:02:26;16.67;;;2.60;;
48076;SDS011;33854;57.708;12.008;2022-10-16T12:05:17;9.10;;;1.17;;
48076;SDS011;33854;57.708;12.008;2022-10-16T12:07:51;0.00;;;0.00;;
48076;SDS011;33854;57.708;12.008;2022-10-16T12:10:28;0.00;;;0.00;;
48076;SDS011;33854;57.708;12.008;2022-10-16T12:12:57;0.10;;;0.10;;
48076;SDS011;33854;57.708;12.008;2022-10-16T12:15:27;0.00;;;0.00;;
48076;SDS011;33854;57.708;12.008;2022-10-16T12:17:54;0.00;;;0.00;;
48076;SDS011;33854;57.708;12.008;2022-10-16T12:20:25;1.98;;;1.08;;
48076;SDS011;33854;57.708;12.008;2022-10-16T12:23:03;0.00;;;0.00;;
48076;SDS011;33854;57.708;12.008;2022-10-16T12:25:31;0.00;;;0.00;;
48076;SDS011;33854;57.708;12.008;2022-10-16T12:30:42;0.00;;;0.00;;
48076;SDS011;33854;57.708;12.008;2022-10-16T12:33:59;1.05;;;0.57;;
48076;SDS011;33854;57.708;12.008;2022-10-16T12:36:10;0.00;;;0.00;;
48076;SDS011;33854;57.708;12.008;2022-10-16T12:38:47;0.00;;;0.00;;
48076;SDS011;33854;57.708;12.008;2022-10-16T12:41:23;0.10;;;0.10;;
48076;SDS011;33854;57.708;12.008;2022-10-16T12:43:54;0.00;;;0.00;;
48076;SDS011;33854;57.708;12.008;2022-10-16T12:49:04;3.58;;;1.10;;
48076;SDS011;33854;57.708;12.008;2022-10-16T12:51:50;0.28;;;0.28;;
48076;SDS011;33854;57.708;12.008;2022-10-16T12:54:25;0.10;;;0.10;;
48076;SDS011;33854;57.708;12.008;2022-10-16T13:00:09;0.00;;;0.00;;
48076;SDS011;33854;57.708;12.008;2022-10-16T13:08:17;0.00;;;0.00;;
48076;SDS011;33854;57.708;12.008;2022-10-16T13:14:14;0.13;;;0.13;;
48076;SDS011;33854;57.708;12.008;2022-10-16T13:17:15;0.03;;;0.03;;
48076;SDS011;33854;57.708;12.008;2022-10-16T13:22:41;0.00;;;0.00;;
48076;SDS011;33854;57.708;12.008;2022-10-16T13:30:31;0.00;;;0.00;;
48076;SDS011;33854;57.708;12.008;2022-10-16T13:36:17;0.00;;;0.00;;
48076;SDS011;33854;57.708;12.008;2022-10-16T13:38:44;0.00;;;0.00;;
48076;SDS011;33854;57.708;12.008;2022-10-16T13:41:14;0.20;;;0.20;;
48076;SDS011;33854;57.708;12.008;2022-10-16T13:43:44;0.00;;;0.00;;
48076;SDS011;33854;57.708;12.008;2022-10-16T13:46:20;0.00;;;0.00;;
48076;SDS011;33854;57.708;12.008;2022-10-16T13:49:00;11.13;;;2.42;;
48076;SDS011;33854;57.708;12.008;2022-10-16T13:51:30;6.93;;;1.70;;
48076;SDS011;33854;57.708;12.008;2022-10-16T13:53:57;10.85;;;2.00;;
48076;SDS011;33854;57.708;12.008;2022-10-16T13:56:27;9.57;;;1.73;;
48076;SDS011;33854;57.708;12.008;2022-10-16T13:59:02;13.93;;;3.17;;
48076;SDS011;33854;57.708;12.008;2022-10-16T14:01:30;16.73;;;1.92;;
48076;SDS011;33854;57.708;12.008;2022-10-16T14:04:03;9.25;;;1.55;;
48076;SDS011;33854;57.708;12.008;2022-10-16T14:06:30;9.07;;;1.90;;
48076;SDS011;33854;57.708;12.008;2022-10-16T14:09:12;16.10;;;2.25;;
48076;SDS011;33854;57.708;12.008;2022-10-16T14:11:47;13.25;;;1.88;;
48076;SDS011;33854;57.708;12.008;2022-10-16T14:14:16;15.80;;;2.78;;
48076;SDS011;33854;57.708;12.008;2022-10-16T14:16:43;11.45;;;2.25;;
48076;SDS011;33854;57.708;12.008;2022-10-16T14:19:21;18.90;;;2.70;;
48076;SDS011;33854;57.708;12.008;2022-10-16T14:21:50;8.25;;;1.83;;
48076;SDS011;33854;57.708;12.008;2022-10-16T14:24:22;16.60;;;2.58;;
48076;SDS011;33854;57.708;12.008;2022-10-16T14:26:51;12.68;;;1.77;;
48076;SDS011;33854;57.708;12.008;2022-10-16T14:29:20;15.68;;;2.20;;
48076;SDS011;33854;57.708;12.008;2022-10-16T14:34:25;10.65;;;1.98;;
48076;SDS011;33854;57.708;12.008;2022-10-16T14:36:55;15.20;;;2.60;;
48076;SDS011;33854;57.708;12.008;2022-10-16T14:39:21;9.68;;;2.13;;
48076;SDS011;33854;57.708;12.008;2022-10-16T14:41:49;11.80;;;2.00;;
48076;SDS011;33854;57.708;12.008;2022-10-16T14:46:46;10.15;;;2.13;;
48076;SDS011;33854;57.708;12.008;2022-10-16T14:51:41;12.60;;;2.33;;
48076;SDS011;33854;57.708;12.008;2022-10-16T14:54:09;16.52;;;2.40;;
48076;SDS011;33854;57.708;12.008;2022-10-16T14:56:43;9.48;;;1.77;;
48076;SDS011;33854;57.708;12.008;2022-10-16T14:59:23;18.08;;;2.83;;
48076;SDS011;33854;57.708;12.008;2022-10-16T15:01:53;13.98;;;1.90;;
48076;SDS011;33854;57.708;12.008;2022-10-16T15:04:19;18.10;;;2.60;;
48076;SDS011;33854;57.708;12.008;2022-10-16T15:06:44;18.13;;;2.63;;
48076;SDS011;33854;57.708;12.008;2022-10-16T15:09:10;22.33;;;2.87;;
48076;SDS011;33854;57.708;12.008;2022-10-16T15:11:35;13.17;;;2.67;;
48076;SDS011;33854;57.708;12.008;2022-10-16T15:14:01;13.23;;;2.07;;
48076;SDS011;33854;57.708;12.008;2022-10-16T15:16:28;18.55;;;1.90;;
48076;SDS011;33854;57.708;12.008;2022-10-16T15:18:54;13.85;;;2.15;;
48076;SDS011;33854;57.708;12.008;2022-10-16T15:23:48;15.27;;;2.30;;
48076;SDS011;33854;57.708;12.008;2022-10-16T15:26:14;18.10;;;2.85;;
48076;SDS011;33854;57.708;12.008;2022-10-16T15:28:39;23.43;;;3.67;;
48076;SDS011;33854;57.708;12.008;2022-10-16T15:31:05;16.10;;;2.67;;
48076;SDS011;33854;57.708;12.008;2022-10-16T15:33:30;17.83;;;3.17;;
48076;SDS011;33854;57.708;12.008;2022-10-16T15:35:58;21.42;;;2.40;;
48076;SDS011;33854;57.708;12.008;2022-10-16T15:38:24;17.27;;;3.10;;
48076;SDS011;33854;57.708;12.008;2022-10-16T15:40:52;15.25;;;2.40;;
48076;SDS011;33854;57.708;12.008;2022-10-16T15:43:17;16.37;;;2.03;;
48076;SDS011;33854;57.708;12.008;2022-10-16T15:45:43;15.65;;;2.20;;
48076;SDS011;33854;57.708;12.008;2022-10-16T15:48:10;14.40;;;1.95;;
48076;SDS011;33854;57.708;12.008;2022-10-16T15:50:38;10.93;;;2.05;;
48076;SDS011;33854;57.708;12.008;2022-10-16T15:53:04;15.32;;;2.20;;
48076;SDS011;33854;57.708;12.008;2022-10-16T15:55:30;8.63;;;1.97;;
48076;SDS011;33854;57.708;12.008;2022-10-16T15:57:55;14.87;;;2.40;;
48076;SDS011;33854;57.708;12.008;2022-10-16T16:00:20;12.83;;;2.20;;
48076;SDS011;33854;57.708;12.008;2022-10-16T16:02:50;16.88;;;1.90;;
48076;SDS011;33854;57.708;12.008;2022-10-16T16:05:17;15.60;;;2.72;;
48076;SDS011;33854;57.708;12.008;2022-10-16T16:07:43;14.13;;;1.97;;
48076;SDS011;33854;57.708;12.008;2022-10-16T16:10:09;9.57;;;1.90;;
48076;SDS011;33854;57.708;12.008;2022-10-16T16:12:35;11.57;;;3.38;;
48076;SDS011;33854;57.708;12.008;2022-10-16T16:15:01;15.65;;;2.50;;
48076;SDS011;33854;57.708;12.008;2022-10-16T16:17:28;12.50;;;2.83;;
48076;SDS011;33854;57.708;12.008;2022-10-16T16:19:55;16.52;;;2.60;;
48076;SDS011;33854;57.708;12.008;2022-10-16T16:22:20;13.90;;;2.30;;
48076;SDS011;33854;57.708;12.008;2022-10-16T16:24:46;27.60;;;3.27;;
48076;SDS011;33854;57.708;12.008;2022-10-16T16:27:11;9.23;;;1.17;;
48076;SDS011;33854;57.708;12.008;2022-10-16T16:32:03;12.93;;;2.87;;
48076;SDS011;33854;57.708;12.008;2022-10-16T16:34:29;19.40;;;2.90;;
48076;SDS011;33854;57.708;12.008;2022-10-16T16:36:55;16.93;;;2.10;;
48076;SDS011;33854;57.708;12.008;2022-10-16T16:39:21;19.40;;;3.85;;
48076;SDS011;33854;57.708;12.008;2022-10-16T16:41:47;13.75;;;3.28;;
48076;SDS011;33854;57.708;12.008;2022-10-16T16:44:14;13.10;;;1.70;;
48076;SDS011;33854;57.708;12.008;2022-10-16T16:46:41;16.13;;;2.92;;
48076;SDS011;33854;57.708;12.008;2022-10-16T16:49:09;14.73;;;2.78;;